sensor_id;sensor_type;location;lat;lon;timestamp;P1;durP1;ratioP1;P2;durP2;ratioP2
73454;SDS011;61690;51.824;6.306;2023-12-20T00:01:22;3.50;;;0.90;;
73454;SDS011;61690;51.824;6.306;2023-12-20T00:03:48;3.90;;;0.90;;
73454;SDS011;61690;51.824;6.306;2023-12-20T00:06:13;3.90;;;1.17;;
73454;SDS011;61690;51.824;6.306;2023-12-20T00:08:38;3.60;;;1.00;;
73454;SDS011;61690;51.824;6.306;2023-12-20T00:11:04;4.00;;;1.40;;
73454;SDS011;61690;51.824;6.306;2023-12-20T00:13:29;3.40;;;1.00;;
73454;SDS011;61690;51.824;6.306;2023-12-20T00:15:54;5.13;;;1.57;;
73454;SDS011;61690;51.824;6.306;2023-12-20T00:18:19;3.83;;;1.17;;
73454;SDS011;61690;51.824;6.306;2023-12-20T00:20:45;4.40;;;1.43;;
73454;SDS011;61690;51.824;6.306;2023-12-20T00:23:10;3.43;;;1.10;;
73454;SDS011;61690;51.824;6.306;2023-12-20T00:25:35;3.73;;;1.10;;
73454;SDS011;61690;51.824;6.306;2023-12-20T00:28:01;3.80;;;1.30;;
73454;SDS011;61690;51.824;6.306;2023-12-20T00:30:27;3.30;;;0.90;;
73454;SDS011;61690;51.824;6.306;2023-12-20T00:32:52;4.53;;;1.30;;
73454;SDS011;61690;51.824;6.306;2023-12-20T00:35:18;3.90;;;1.00;;
73454;SDS011;61690;51.824;6.306;2023-12-20T00:37:43;3.30;;;0.88;;
73454;SDS011;61690;51.824;6.306;2023-12-20T00:40:09;4.33;;;1.13;;
73454;SDS011;61690;51.824;6.306;2023-12-20T00:42:35;3.70;;;1.55;;
73454;SDS011;61690;51.824;6.306;2023-12-20T00:45:01;3.63;;;1.00;;
73454;SDS011;61690;51.824;6.306;2023-12-20T00:47:27;3.40;;;1.00;;
73454;SDS011;61690;51.824;6.306;2023-12-20T00:49:52;4.37;;;1.00;;
73454;SDS011;61690;51.824;6.306;2023-12-20T00:52:17;3.40;;;1.07;;
73454;SDS011;61690;51.824;6.306;2023-12-20T00:54:43;3.85;;;0.93;;
73454;SDS011;61690;51.824;6.306;2023-12-20T00:57:09;3.20;;;0.90;;
73454;SDS011;61690;51.824;6.306;2023-12-20T00:59:34;3.70;;;0.90;;
73454;SDS011;61690;51.824;6.306;2023-12-20T01:01:59;3.50;;;1.00;;
73454;SDS011;61690;51.824;6.306;2023-12-20T01:04:25;3.50;;;1.13;;
73454;SDS011;61690;51.824;6.306;2023-12-20T01:06:50;3.33;;;1.03;;
73454;SDS011;61690;51.824;6.306;2023-12-20T01:09:15;3.20;;;0.87;;
73454;SDS011;61690;51.824;6.306;2023-12-20T01:11:41;3.50;;;1.00;;
73454;SDS011;61690;51.824;6.306;2023-12-20T01:14:06;3.30;;;1.00;;
73454;SDS011;61690;51.824;6.306;2023-12-20T01:16:32;3.30;;;0.90;;
73454;SDS011;61690;51.824;6.306;2023-12-20T01:18:57;3.90;;;0.90;;
73454;SDS011;61690;51.824;6.306;2023-12-20T01:21:22;3.30;;;0.87;;
73454;SDS011;61690;51.824;6.306;2023-12-20T01:23:47;3.73;;;1.20;;
73454;SDS011;61690;51.824;6.306;2023-12-20T01:26:13;3.20;;;0.93;;
73454;SDS011;61690;51.824;6.306;2023-12-20T01:28:39;3.75;;;1.20;;
73454;SDS011;61690;51.824;6.306;2023-12-20T01:31:05;3.83;;;1.10;;
73454;SDS011;61690;51.824;6.306;2023-12-20T01:33:30;3.10;;;0.90;;
73454;SDS011;61690;51.824;6.306;2023-12-20T01:35:55;3.50;;;1.17;;
73454;SDS011;61690;51.824;6.306;2023-12-20T01:38:21;3.70;;;1.10;;
73454;SDS011;61690;51.824;6.306;2023-12-20T01:40:46;3.80;;;1.00;;
73454;SDS011;61690;51.824;6.306;2023-12-20T01:43:11;4.10;;;1.00;;
73454;SDS011;61690;51.824;6.306;2023-12-20T01:45:37;3.55;;;1.10;;
73454;SDS011;61690;51.824;6.306;2023-12-20T01:48:03;3.70;;;0.90;;
73454;SDS011;61690;51.824;6.306;2023-12-20T01:50:30;3.80;;;0.95;;
73454;SDS011;61690;51.824;6.306;2023-12-20T01:52:57;3.40;;;0.93;;
73454;SDS011;61690;51.824;6.306;2023-12-20T01:55:25;3.70;;;1.00;;
73454;SDS011;61690;51.824;6.306;2023-12-20T01:57:52;3.47;;;0.90;;
73454;SDS011;61690;51.824;6.306;2023-12-20T02:00:18;3.90;;;1.10;;
73454;SDS011;61690;51.824;6.306;2023-12-20T02:02:48;3.38;;;0.77;;
73454;SDS011;61690;51.824;6.306;2023-12-20T02:05:14;3.90;;;1.10;;
73454;SDS011;61690;51.824;6.306;2023-12-20T02:07:40;3.97;;;1.30;;
73454;SDS011;61690;51.824;6.306;2023-12-20T02:10:06;3.47;;;0.93;;
73454;SDS011;61690;51.824;6.306;2023-12-20T02:12:31;3.72;;;1.00;;
73454;SDS011;61690;51.824;6.306;2023-12-20T02:14:57;4.20;;;1.00;;
73454;SDS011;61690;51.824;6.306;2023-12-20T02:17:22;3.13;;;0.80;;
73454;SDS011;61690;51.824;6.306;2023-12-20T02:19:49;3.45;;;1.00;;
73454;SDS011;61690;51.824;6.306;2023-12-20T02:22:14;3.30;;;0.82;;
73454;SDS011;61690;51.824;6.306;2023-12-20T02:24:40;3.47;;;0.90;;
73454;SDS011;61690;51.824;6.306;2023-12-20T02:27:06;3.33;;;0.90;;
73454;SDS011;61690;51.824;6.306;2023-12-20T02:29:33;3.28;;;1.00;;
73454;SDS011;61690;51.824;6.306;2023-12-20T02:31:59;3.90;;;0.90;;
73454;SDS011;61690;51.824;6.306;2023-12-20T02:34:24;3.53;;;0.80;;
73454;SDS011;61690;51.824;6.306;2023-12-20T02:36:50;3.77;;;1.17;;
73454;SDS011;61690;51.824;6.306;2023-12-20T02:39:15;3.53;;;0.82;;
73454;SDS011;61690;51.824;6.306;2023-12-20T02:41:41;3.50;;;0.90;;
73454;SDS011;61690;51.824;6.306;2023-12-20T02:44:06;4.23;;;1.00;;
73454;SDS011;61690;51.824;6.306;2023-12-20T02:46:31;3.67;;;0.87;;
73454;SDS011;61690;51.824;6.306;2023-12-20T02:48:56;3.20;;;0.83;;
73454;SDS011;61690;51.824;6.306;2023-12-20T02:51:22;3.53;;;0.80;;
73454;SDS011;61690;51.824;6.306;2023-12-20T02:53:47;3.47;;;0.90;;
73454;SDS011;61690;51.824;6.306;2023-12-20T02:56:12;3.37;;;0.90;;
73454;SDS011;61690;51.824;6.306;2023-12-20T02:58:39;3.55;;;1.00;;
73454;SDS011;61690;51.824;6.306;2023-12-20T03:01:04;3.50;;;0.80;;
73454;SDS011;61690;51.824;6.306;2023-12-20T03:03:30;3.83;;;1.00;;
73454;SDS011;61690;51.824;6.306;2023-12-20T03:05:55;3.03;;;0.70;;
73454;SDS011;61690;51.824;6.306;2023-12-20T03:08:20;3.40;;;1.10;;
73454;SDS011;61690;51.824;6.306;2023-12-20T03:10:46;4.37;;;1.10;;
73454;SDS011;61690;51.824;6.306;2023-12-20T03:13:11;3.40;;;1.00;;
73454;SDS011;61690;51.824;6.306;2023-12-20T03:15:36;3.37;;;0.90;;
73454;SDS011;61690;51.824;6.306;2023-12-20T03:18:02;3.47;;;0.90;;
73454;SDS011;61690;51.824;6.306;2023-12-20T03:20:27;3.30;;;0.90;;
73454;SDS011;61690;51.824;6.306;2023-12-20T03:22:53;3.40;;;1.00;;
73454;SDS011;61690;51.824;6.306;2023-12-20T03:25:18;3.60;;;0.80;;
73454;SDS011;61690;51.824;6.306;2023-12-20T03:27:43;3.00;;;0.80;;
73454;SDS011;61690;51.824;6.306;2023-12-20T03:30:09;3.53;;;0.80;;
73454;SDS011;61690;51.824;6.306;2023-12-20T03:32:34;3.67;;;1.00;;
73454;SDS011;61690;51.824;6.306;2023-12-20T03:35:00;3.70;;;0.90;;
73454;SDS011;61690;51.824;6.306;2023-12-20T03:37:25;3.20;;;0.80;;
73454;SDS011;61690;51.824;6.306;2023-12-20T03:39:50;3.30;;;0.80;;
73454;SDS011;61690;51.824;6.306;2023-12-20T03:42:15;3.03;;;0.80;;
73454;SDS011;61690;51.824;6.306;2023-12-20T03:44:41;4.13;;;0.90;;
73454;SDS011;61690;51.824;6.306;2023-12-20T03:47:06;3.93;;;0.80;;
73454;SDS011;61690;51.824;6.306;2023-12-20T03:49:31;4.10;;;0.90;;
73454;SDS011;61690;51.824;6.306;2023-12-20T03:51:57;3.40;;;0.95;;
73454;SDS011;61690;51.824;6.306;2023-12-20T03:54:22;3.77;;;0.90;;
73454;SDS011;61690;51.824;6.306;2023-12-20T03:56:47;4.10;;;0.80;;
73454;SDS011;61690;51.824;6.306;2023-12-20T03:59:13;3.40;;;0.87;;
73454;SDS011;61690;51.824;6.306;2023-12-20T04:01:39;2.92;;;0.70;;
73454;SDS011;61690;51.824;6.306;2023-12-20T04:04:09;3.03;;;0.83;;
73454;SDS011;61690;51.824;6.306;2023-12-20T04:06:34;3.75;;;0.80;;
73454;SDS011;61690;51.824;6.306;2023-12-20T04:09:00;3.50;;;0.87;;
73454;SDS011;61690;51.824;6.306;2023-12-20T04:11:25;3.60;;;0.90;;
73454;SDS011;61690;51.824;6.306;2023-12-20T04:13:50;3.07;;;0.90;;
73454;SDS011;61690;51.824;6.306;2023-12-20T04:16:16;3.47;;;1.20;;
73454;SDS011;61690;51.824;6.306;2023-12-20T04:18:41;4.13;;;1.00;;
73454;SDS011;61690;51.824;6.306;2023-12-20T04:21:06;3.10;;;0.80;;
73454;SDS011;61690;51.824;6.306;2023-12-20T04:23:32;3.47;;;0.80;;
73454;SDS011;61690;51.824;6.306;2023-12-20T04:25:57;3.83;;;1.20;;
73454;SDS011;61690;51.824;6.306;2023-12-20T04:28:22;3.23;;;0.80;;
73454;SDS011;61690;51.824;6.306;2023-12-20T04:30:48;3.47;;;1.00;;
73454;SDS011;61690;51.824;6.306;2023-12-20T04:33:13;3.00;;;0.80;;
73454;SDS011;61690;51.824;6.306;2023-12-20T04:35:38;3.13;;;0.80;;
73454;SDS011;61690;51.824;6.306;2023-12-20T04:38:05;3.33;;;0.80;;
73454;SDS011;61690;51.824;6.306;2023-12-20T04:40:31;4.17;;;1.10;;
73454;SDS011;61690;51.824;6.306;2023-12-20T04:42:56;3.57;;;1.00;;
73454;SDS011;61690;51.824;6.306;2023-12-20T04:45:21;3.33;;;0.93;;
73454;SDS011;61690;51.824;6.306;2023-12-20T04:47:48;3.35;;;0.90;;
73454;SDS011;61690;51.824;6.306;2023-12-20T04:50:13;3.43;;;0.90;;
73454;SDS011;61690;51.824;6.306;2023-12-20T04:52:39;2.95;;;0.65;;
73454;SDS011;61690;51.824;6.306;2023-12-20T04:55:05;3.40;;;0.90;;
73454;SDS011;61690;51.824;6.306;2023-12-20T04:57:30;3.40;;;0.63;;
73454;SDS011;61690;51.824;6.306;2023-12-20T04:59:55;3.20;;;0.90;;
73454;SDS011;61690;51.824;6.306;2023-12-20T05:02:21;3.13;;;0.80;;
73454;SDS011;61690;51.824;6.306;2023-12-20T05:04:46;2.90;;;0.70;;
73454;SDS011;61690;51.824;6.306;2023-12-20T05:07:11;3.40;;;0.90;;
73454;SDS011;61690;51.824;6.306;2023-12-20T05:09:37;3.53;;;0.90;;
73454;SDS011;61690;51.824;6.306;2023-12-20T05:12:02;3.00;;;0.80;;
73454;SDS011;61690;51.824;6.306;2023-12-20T05:14:27;3.47;;;0.90;;
73454;SDS011;61690;51.824;6.306;2023-12-20T05:16:53;4.33;;;1.03;;
73454;SDS011;61690;51.824;6.306;2023-12-20T05:19:18;3.57;;;0.87;;
73454;SDS011;61690;51.824;6.306;2023-12-20T05:21:43;3.20;;;0.70;;
73454;SDS011;61690;51.824;6.306;2023-12-20T05:24:08;3.23;;;0.73;;
73454;SDS011;61690;51.824;6.306;2023-12-20T05:26:34;3.10;;;0.80;;
73454;SDS011;61690;51.824;6.306;2023-12-20T05:28:59;3.20;;;0.77;;
73454;SDS011;61690;51.824;6.306;2023-12-20T05:31:24;4.93;;;1.17;;
73454;SDS011;61690;51.824;6.306;2023-12-20T05:33:50;3.87;;;0.90;;
73454;SDS011;61690;51.824;6.306;2023-12-20T05:36:15;3.30;;;0.80;;
73454;SDS011;61690;51.824;6.306;2023-12-20T05:38:40;5.00;;;0.70;;
73454;SDS011;61690;51.824;6.306;2023-12-20T05:41:05;12.87;;;1.10;;
73454;SDS011;61690;51.824;6.306;2023-12-20T05:43:31;3.87;;;0.80;;
73454;SDS011;61690;51.824;6.306;2023-12-20T05:45:56;4.30;;;0.80;;
73454;SDS011;61690;51.824;6.306;2023-12-20T05:48:21;5.23;;;0.90;;
73454;SDS011;61690;51.824;6.306;2023-12-20T05:50:47;4.25;;;1.00;;
73454;SDS011;61690;51.824;6.306;2023-12-20T05:53:12;4.07;;;0.80;;
73454;SDS011;61690;51.824;6.306;2023-12-20T05:55:38;3.30;;;0.70;;
73454;SDS011;61690;51.824;6.306;2023-12-20T05:58:03;4.47;;;0.70;;
73454;SDS011;61690;51.824;6.306;2023-12-20T06:00:30;3.95;;;0.88;;
73454;SDS011;61690;51.824;6.306;2023-12-20T06:02:55;2.80;;;0.70;;
73454;SDS011;61690;51.824;6.306;2023-12-20T06:05:20;3.10;;;0.70;;
73454;SDS011;61690;51.824;6.306;2023-12-20T06:07:45;3.73;;;1.00;;
73454;SDS011;61690;51.824;6.306;2023-12-20T06:10:13;3.40;;;1.00;;
73454;SDS011;61690;51.824;6.306;2023-12-20T06:12:38;3.67;;;0.73;;
73454;SDS011;61690;51.824;6.306;2023-12-20T06:15:04;3.70;;;0.70;;
73454;SDS011;61690;51.824;6.306;2023-12-20T06:17:30;4.20;;;0.70;;
73454;SDS011;61690;51.824;6.306;2023-12-20T06:19:56;4.45;;;0.95;;
73454;SDS011;61690;51.824;6.306;2023-12-20T06:22:21;4.07;;;1.10;;
73454;SDS011;61690;51.824;6.306;2023-12-20T06:24:47;5.00;;;0.80;;
73454;SDS011;61690;51.824;6.306;2023-12-20T06:27:12;3.27;;;0.80;;
73454;SDS011;61690;51.824;6.306;2023-12-20T06:29:38;3.90;;;0.80;;
73454;SDS011;61690;51.824;6.306;2023-12-20T06:32:03;3.13;;;0.70;;
73454;SDS011;61690;51.824;6.306;2023-12-20T06:34:29;2.83;;;0.60;;
73454;SDS011;61690;51.824;6.306;2023-12-20T06:36:54;3.15;;;0.80;;
73454;SDS011;61690;51.824;6.306;2023-12-20T06:39:19;3.97;;;0.90;;
73454;SDS011;61690;51.824;6.306;2023-12-20T06:41:44;3.80;;;0.67;;
73454;SDS011;61690;51.824;6.306;2023-12-20T06:44:10;5.27;;;0.83;;
73454;SDS011;61690;51.824;6.306;2023-12-20T06:46:35;3.00;;;0.70;;
73454;SDS011;61690;51.824;6.306;2023-12-20T06:49:00;3.80;;;0.90;;
73454;SDS011;61690;51.824;6.306;2023-12-20T06:51:26;3.80;;;0.83;;
73454;SDS011;61690;51.824;6.306;2023-12-20T06:53:51;3.70;;;0.80;;
73454;SDS011;61690;51.824;6.306;2023-12-20T06:56:17;4.50;;;0.93;;
73454;SDS011;61690;51.824;6.306;2023-12-20T06:58:42;3.40;;;0.60;;
73454;SDS011;61690;51.824;6.306;2023-12-20T07:01:11;4.15;;;1.17;;
73454;SDS011;61690;51.824;6.306;2023-12-20T07:03:37;4.72;;;1.10;;
73454;SDS011;61690;51.824;6.306;2023-12-20T07:06:02;3.50;;;0.80;;
73454;SDS011;61690;51.824;6.306;2023-12-20T07:08:28;4.33;;;0.80;;
73454;SDS011;61690;51.824;6.306;2023-12-20T07:10:54;4.33;;;0.80;;
73454;SDS011;61690;51.824;6.306;2023-12-20T07:13:19;4.00;;;0.70;;
73454;SDS011;61690;51.824;6.306;2023-12-20T07:15:44;4.53;;;1.40;;
73454;SDS011;61690;51.824;6.306;2023-12-20T07:18:09;3.57;;;0.90;;
73454;SDS011;61690;51.824;6.306;2023-12-20T07:20:35;3.80;;;1.10;;
73454;SDS011;61690;51.824;6.306;2023-12-20T07:23:00;5.90;;;1.37;;
73454;SDS011;61690;51.824;6.306;2023-12-20T07:25:25;3.70;;;1.00;;
73454;SDS011;61690;51.824;6.306;2023-12-20T07:27:51;4.10;;;0.90;;
73454;SDS011;61690;51.824;6.306;2023-12-20T07:30:16;3.37;;;0.80;;
73454;SDS011;61690;51.824;6.306;2023-12-20T07:32:41;3.13;;;0.70;;
73454;SDS011;61690;51.824;6.306;2023-12-20T07:35:07;4.17;;;1.13;;
73454;SDS011;61690;51.824;6.306;2023-12-20T07:37:32;3.83;;;0.80;;
73454;SDS011;61690;51.824;6.306;2023-12-20T07:39:57;4.57;;;1.00;;
73454;SDS011;61690;51.824;6.306;2023-12-20T07:42:23;3.53;;;0.80;;
73454;SDS011;61690;51.824;6.306;2023-12-20T07:44:48;3.60;;;0.80;;
73454;SDS011;61690;51.824;6.306;2023-12-20T07:47:14;4.10;;;0.80;;
73454;SDS011;61690;51.824;6.306;2023-12-20T07:49:43;3.90;;;0.90;;
73454;SDS011;61690;51.824;6.306;2023-12-20T07:52:08;4.80;;;1.07;;
73454;SDS011;61690;51.824;6.306;2023-12-20T07:54:34;3.60;;;0.70;;
73454;SDS011;61690;51.824;6.306;2023-12-20T07:56:59;4.07;;;0.90;;
73454;SDS011;61690;51.824;6.306;2023-12-20T07:59:24;3.30;;;0.80;;
73454;SDS011;61690;51.824;6.306;2023-12-20T08:01:50;4.10;;;0.90;;
73454;SDS011;61690;51.824;6.306;2023-12-20T08:04:15;3.23;;;0.80;;
73454;SDS011;61690;51.824;6.306;2023-12-20T08:06:40;3.73;;;0.80;;
73454;SDS011;61690;51.824;6.306;2023-12-20T08:09:05;3.90;;;1.00;;
73454;SDS011;61690;51.824;6.306;2023-12-20T08:11:31;4.27;;;0.80;;
73454;SDS011;61690;51.824;6.306;2023-12-20T08:13:56;4.03;;;0.90;;
73454;SDS011;61690;51.824;6.306;2023-12-20T08:16:21;4.07;;;0.90;;
73454;SDS011;61690;51.824;6.306;2023-12-20T08:18:47;4.57;;;1.00;;
73454;SDS011;61690;51.824;6.306;2023-12-20T08:21:12;3.20;;;0.70;;
73454;SDS011;61690;51.824;6.306;2023-12-20T08:23:38;3.60;;;0.82;;
73454;SDS011;61690;51.824;6.306;2023-12-20T08:26:07;4.43;;;1.00;;
73454;SDS011;61690;51.824;6.306;2023-12-20T08:28:33;4.47;;;0.70;;
73454;SDS011;61690;51.824;6.306;2023-12-20T08:30:59;4.40;;;0.87;;
73454;SDS011;61690;51.824;6.306;2023-12-20T08:36:47;3.70;;;0.90;;
73454;SDS011;61690;51.824;6.306;2023-12-20T08:39:12;3.50;;;0.60;;
73454;SDS011;61690;51.824;6.306;2023-12-20T08:41:38;3.03;;;0.53;;
73454;SDS011;61690;51.824;6.306;2023-12-20T08:44:03;4.00;;;0.70;;
73454;SDS011;61690;51.824;6.306;2023-12-20T08:46:29;3.90;;;1.00;;
73454;SDS011;61690;51.824;6.306;2023-12-20T08:48:54;3.63;;;0.80;;
73454;SDS011;61690;51.824;6.306;2023-12-20T08:51:19;3.33;;;0.60;;
73454;SDS011;61690;51.824;6.306;2023-12-20T08:53:47;3.58;;;0.73;;
73454;SDS011;61690;51.824;6.306;2023-12-20T08:56:13;4.45;;;1.00;;
73454;SDS011;61690;51.824;6.306;2023-12-20T08:58:39;3.80;;;0.70;;
73454;SDS011;61690;51.824;6.306;2023-12-20T09:01:04;4.67;;;0.93;;
73454;SDS011;61690;51.824;6.306;2023-12-20T09:03:29;4.17;;;0.70;;
73454;SDS011;61690;51.824;6.306;2023-12-20T09:05:55;3.30;;;0.80;;
73454;SDS011;61690;51.824;6.306;2023-12-20T09:08:20;4.10;;;0.67;;
73454;SDS011;61690;51.824;6.306;2023-12-20T09:10:45;3.60;;;0.90;;
73454;SDS011;61690;51.824;6.306;2023-12-20T09:13:11;3.27;;;0.70;;
73454;SDS011;61690;51.824;6.306;2023-12-20T09:15:36;3.30;;;0.90;;
73454;SDS011;61690;51.824;6.306;2023-12-20T09:18:02;4.75;;;0.98;;
73454;SDS011;61690;51.824;6.306;2023-12-20T09:20:27;3.60;;;0.83;;
73454;SDS011;61690;51.824;6.306;2023-12-20T09:22:53;3.60;;;0.83;;
73454;SDS011;61690;51.824;6.306;2023-12-20T09:25:18;4.45;;;1.00;;
73454;SDS011;61690;51.824;6.306;2023-12-20T09:27:44;3.10;;;0.70;;
73454;SDS011;61690;51.824;6.306;2023-12-20T09:30:09;3.17;;;0.80;;
73454;SDS011;61690;51.824;6.306;2023-12-20T09:32:34;4.10;;;0.87;;
73454;SDS011;61690;51.824;6.306;2023-12-20T09:35:00;3.33;;;0.77;;
73454;SDS011;61690;51.824;6.306;2023-12-20T09:37:26;3.77;;;0.70;;
73454;SDS011;61690;51.824;6.306;2023-12-20T09:39:52;3.55;;;0.80;;
73454;SDS011;61690;51.824;6.306;2023-12-20T09:42:21;3.60;;;1.00;;
73454;SDS011;61690;51.824;6.306;2023-12-20T09:44:54;3.10;;;0.60;;
73454;SDS011;61690;51.824;6.306;2023-12-20T09:47:20;3.65;;;0.80;;
73454;SDS011;61690;51.824;6.306;2023-12-20T09:49:49;3.67;;;0.80;;
73454;SDS011;61690;51.824;6.306;2023-12-20T09:52:16;3.50;;;1.00;;
73454;SDS011;61690;51.824;6.306;2023-12-20T09:54:43;2.90;;;0.70;;
73454;SDS011;61690;51.824;6.306;2023-12-20T09:57:09;3.53;;;0.75;;
73454;SDS011;61690;51.824;6.306;2023-12-20T09:59:35;3.30;;;0.70;;
73454;SDS011;61690;51.824;6.306;2023-12-20T10:02:00;4.00;;;0.90;;
73454;SDS011;61690;51.824;6.306;2023-12-20T10:04:28;4.90;;;0.90;;
73454;SDS011;61690;51.824;6.306;2023-12-20T10:07:01;4.20;;;0.90;;
73454;SDS011;61690;51.824;6.306;2023-12-20T10:09:28;4.07;;;0.80;;
73454;SDS011;61690;51.824;6.306;2023-12-20T10:11:56;4.38;;;0.90;;
73454;SDS011;61690;51.824;6.306;2023-12-20T10:14:22;3.65;;;0.73;;
73454;SDS011;61690;51.824;6.306;2023-12-20T10:16:50;3.83;;;0.73;;
73454;SDS011;61690;51.824;6.306;2023-12-20T10:19:16;5.50;;;1.13;;
73454;SDS011;61690;51.824;6.306;2023-12-20T10:21:43;6.22;;;1.17;;
73454;SDS011;61690;51.824;6.306;2023-12-20T10:24:09;7.05;;;1.35;;
73454;SDS011;61690;51.824;6.306;2023-12-20T10:26:42;4.77;;;1.20;;
73454;SDS011;61690;51.824;6.306;2023-12-20T10:29:07;6.20;;;1.30;;
73454;SDS011;61690;51.824;6.306;2023-12-20T10:31:33;6.23;;;1.20;;
73454;SDS011;61690;51.824;6.306;2023-12-20T10:34:00;5.57;;;1.30;;
73454;SDS011;61690;51.824;6.306;2023-12-20T10:36:28;7.28;;;1.20;;
73454;SDS011;61690;51.824;6.306;2023-12-20T10:38:55;6.30;;;1.48;;
73454;SDS011;61690;51.824;6.306;2023-12-20T10:41:26;6.30;;;1.10;;
73454;SDS011;61690;51.824;6.306;2023-12-20T10:43:59;9.07;;;1.75;;
73454;SDS011;61690;51.824;6.306;2023-12-20T10:46:27;6.50;;;1.30;;
73454;SDS011;61690;51.824;6.306;2023-12-20T10:48:55;7.65;;;1.17;;
73454;SDS011;61690;51.824;6.306;2023-12-20T10:51:22;7.10;;;1.15;;
73454;SDS011;61690;51.824;6.306;2023-12-20T10:53:49;6.65;;;1.50;;
73454;SDS011;61690;51.824;6.306;2023-12-20T10:56:16;6.20;;;0.82;;
73454;SDS011;61690;51.824;6.306;2023-12-20T10:58:51;6.07;;;1.20;;
73454;SDS011;61690;51.824;6.306;2023-12-20T11:01:17;6.35;;;1.10;;
73454;SDS011;61690;51.824;6.306;2023-12-20T11:03:50;5.65;;;1.15;;
73454;SDS011;61690;51.824;6.306;2023-12-20T11:08:53;6.13;;;1.47;;
73454;SDS011;61690;51.824;6.306;2023-12-20T11:11:27;6.70;;;1.13;;
73454;SDS011;61690;51.824;6.306;2023-12-20T11:14:08;6.38;;;1.60;;
73454;SDS011;61690;51.824;6.306;2023-12-20T11:16:40;5.78;;;1.20;;
73454;SDS011;61690;51.824;6.306;2023-12-20T11:19:06;5.60;;;1.07;;
73454;SDS011;61690;51.824;6.306;2023-12-20T11:21:31;8.17;;;1.10;;
73454;SDS011;61690;51.824;6.306;2023-12-20T11:23:57;5.40;;;1.20;;
73454;SDS011;61690;51.824;6.306;2023-12-20T11:26:26;7.23;;;1.37;;
73454;SDS011;61690;51.824;6.306;2023-12-20T11:29:28;5.47;;;1.05;;
73454;SDS011;61690;51.824;6.306;2023-12-20T11:34:54;5.50;;;1.30;;
73454;SDS011;61690;51.824;6.306;2023-12-20T11:37:30;6.68;;;1.08;;
73454;SDS011;61690;51.824;6.306;2023-12-20T11:40:00;8.00;;;1.00;;
73454;SDS011;61690;51.824;6.306;2023-12-20T11:42:27;5.20;;;0.98;;
73454;SDS011;61690;51.824;6.306;2023-12-20T11:44:53;5.77;;;1.13;;
73454;SDS011;61690;51.824;6.306;2023-12-20T11:47:18;6.40;;;0.97;;
73454;SDS011;61690;51.824;6.306;2023-12-20T11:49:46;5.97;;;1.40;;
73454;SDS011;61690;51.824;6.306;2023-12-20T11:52:12;8.80;;;1.52;;
73454;SDS011;61690;51.824;6.306;2023-12-20T11:54:38;4.72;;;1.20;;
73454;SDS011;61690;51.824;6.306;2023-12-20T11:57:03;8.50;;;1.53;;
73454;SDS011;61690;51.824;6.306;2023-12-20T11:59:29;7.77;;;1.17;;
73454;SDS011;61690;51.824;6.306;2023-12-20T12:01:56;7.63;;;0.80;;
73454;SDS011;61690;51.824;6.306;2023-12-20T12:04:25;5.05;;;0.70;;
73454;SDS011;61690;51.824;6.306;2023-12-20T12:06:51;7.87;;;1.10;;
73454;SDS011;61690;51.824;6.306;2023-12-20T12:09:16;7.43;;;0.97;;
73454;SDS011;61690;51.824;6.306;2023-12-20T12:11:42;7.32;;;0.80;;
73454;SDS011;61690;51.824;6.306;2023-12-20T12:14:08;8.93;;;1.10;;
73454;SDS011;61690;51.824;6.306;2023-12-20T12:16:33;7.27;;;1.20;;
73454;SDS011;61690;51.824;6.306;2023-12-20T12:18:59;7.83;;;0.87;;
73454;SDS011;61690;51.824;6.306;2023-12-20T12:21:25;5.47;;;0.80;;
73454;SDS011;61690;51.824;6.306;2023-12-20T12:23:51;10.10;;;1.37;;
73454;SDS011;61690;51.824;6.306;2023-12-20T12:26:16;7.22;;;1.10;;
73454;SDS011;61690;51.824;6.306;2023-12-20T12:28:42;6.33;;;1.00;;
73454;SDS011;61690;51.824;6.306;2023-12-20T12:31:07;5.77;;;1.30;;
73454;SDS011;61690;51.824;6.306;2023-12-20T12:33:38;6.85;;;1.00;;
73454;SDS011;61690;51.824;6.306;2023-12-20T12:36:04;6.63;;;1.20;;
73454;SDS011;61690;51.824;6.306;2023-12-20T12:38:32;6.43;;;1.00;;
73454;SDS011;61690;51.824;6.306;2023-12-20T12:40:57;7.83;;;0.80;;
73454;SDS011;61690;51.824;6.306;2023-12-20T12:43:23;5.15;;;1.20;;
73454;SDS011;61690;51.824;6.306;2023-12-20T12:45:49;4.57;;;0.83;;
73454;SDS011;61690;51.824;6.306;2023-12-20T12:48:14;5.78;;;1.02;;
73454;SDS011;61690;51.824;6.306;2023-12-20T12:50:40;5.93;;;1.30;;
73454;SDS011;61690;51.824;6.306;2023-12-20T12:53:05;4.80;;;1.03;;
73454;SDS011;61690;51.824;6.306;2023-12-20T12:55:31;7.50;;;1.02;;
73454;SDS011;61690;51.824;6.306;2023-12-20T12:57:56;5.30;;;1.13;;
73454;SDS011;61690;51.824;6.306;2023-12-20T13:00:22;6.20;;;1.03;;
73454;SDS011;61690;51.824;6.306;2023-12-20T13:02:47;5.20;;;0.85;;
73454;SDS011;61690;51.824;6.306;2023-12-20T13:05:13;5.23;;;1.00;;
73454;SDS011;61690;51.824;6.306;2023-12-20T13:07:38;5.73;;;0.60;;
73454;SDS011;61690;51.824;6.306;2023-12-20T13:10:04;5.45;;;1.00;;
73454;SDS011;61690;51.824;6.306;2023-12-20T13:12:30;6.75;;;0.90;;
73454;SDS011;61690;51.824;6.306;2023-12-20T13:14:57;5.25;;;0.98;;
73454;SDS011;61690;51.824;6.306;2023-12-20T13:17:22;9.63;;;1.20;;
73454;SDS011;61690;51.824;6.306;2023-12-20T13:19:48;5.50;;;0.80;;
73454;SDS011;61690;51.824;6.306;2023-12-20T13:22:14;6.90;;;1.27;;
73454;SDS011;61690;51.824;6.306;2023-12-20T13:24:40;5.45;;;1.13;;
73454;SDS011;61690;51.824;6.306;2023-12-20T13:27:05;5.33;;;1.20;;
73454;SDS011;61690;51.824;6.306;2023-12-20T13:29:30;4.10;;;0.77;;
73454;SDS011;61690;51.824;6.306;2023-12-20T13:31:56;5.50;;;0.80;;
73454;SDS011;61690;51.824;6.306;2023-12-20T13:34:22;4.78;;;0.95;;
73454;SDS011;61690;51.824;6.306;2023-12-20T13:36:48;7.30;;;1.00;;
73454;SDS011;61690;51.824;6.306;2023-12-20T13:39:15;4.20;;;0.80;;
73454;SDS011;61690;51.824;6.306;2023-12-20T13:41:41;4.88;;;0.80;;
73454;SDS011;61690;51.824;6.306;2023-12-20T13:44:07;6.47;;;1.15;;
73454;SDS011;61690;51.824;6.306;2023-12-20T13:46:32;5.97;;;1.00;;
73454;SDS011;61690;51.824;6.306;2023-12-20T13:48:58;6.73;;;1.00;;
73454;SDS011;61690;51.824;6.306;2023-12-20T13:51:23;5.83;;;0.93;;
73454;SDS011;61690;51.824;6.306;2023-12-20T13:53:48;4.90;;;0.90;;
73454;SDS011;61690;51.824;6.306;2023-12-20T13:56:14;5.35;;;1.20;;
73454;SDS011;61690;51.824;6.306;2023-12-20T13:58:40;7.33;;;1.47;;
73454;SDS011;61690;51.824;6.306;2023-12-20T14:01:06;5.53;;;1.20;;
73454;SDS011;61690;51.824;6.306;2023-12-20T14:03:35;5.65;;;1.15;;
73454;SDS011;61690;51.824;6.306;2023-12-20T14:06:00;5.90;;;0.90;;
73454;SDS011;61690;51.824;6.306;2023-12-20T14:08:26;5.50;;;1.00;;
73454;SDS011;61690;51.824;6.306;2023-12-20T14:10:52;4.90;;;1.20;;
73454;SDS011;61690;51.824;6.306;2023-12-20T14:13:17;5.87;;;1.20;;
73454;SDS011;61690;51.824;6.306;2023-12-20T14:15:43;4.63;;;1.00;;
73454;SDS011;61690;51.824;6.306;2023-12-20T14:18:09;5.90;;;1.30;;
73454;SDS011;61690;51.824;6.306;2023-12-20T14:20:35;7.00;;;1.20;;
73454;SDS011;61690;51.824;6.306;2023-12-20T14:23:01;5.00;;;0.87;;
73454;SDS011;61690;51.824;6.306;2023-12-20T14:25:27;5.00;;;0.90;;
73454;SDS011;61690;51.824;6.306;2023-12-20T14:27:52;5.57;;;1.10;;
73454;SDS011;61690;51.824;6.306;2023-12-20T14:30:17;5.20;;;0.97;;
73454;SDS011;61690;51.824;6.306;2023-12-20T14:32:43;5.72;;;1.10;;
73454;SDS011;61690;51.824;6.306;2023-12-20T14:35:08;7.53;;;1.40;;
73454;SDS011;61690;51.824;6.306;2023-12-20T14:37:37;7.77;;;1.30;;
73454;SDS011;61690;51.824;6.306;2023-12-20T14:40:06;5.80;;;0.95;;
73454;SDS011;61690;51.824;6.306;2023-12-20T14:42:35;5.38;;;1.00;;
73454;SDS011;61690;51.824;6.306;2023-12-20T14:45:00;5.80;;;1.30;;
73454;SDS011;61690;51.824;6.306;2023-12-20T14:47:25;6.07;;;1.10;;
73454;SDS011;61690;51.824;6.306;2023-12-20T14:49:51;6.83;;;1.30;;